sensor_id;sensor_type;location;lat;lon;timestamp;pressure;altitude;pressure_sealevel;temperature;humidity
46710;BME280;32442;51.514;-0.178;2023-01-26T00:01:06;102585.91;;;21.10;38.54
46710;BME280;32442;51.514;-0.178;2023-01-26T00:03:34;102580.03;;;21.11;38.67
46710;BME280;32442;51.514;-0.178;2023-01-26T00:06:02;102586.22;;;21.13;38.70
46710;BME280;32442;51.514;-0.178;2023-01-26T00:08:28;102578.66;;;21.14;38.53
46710;BME280;32442;51.514;-0.178;2023-01-26T00:10:55;102579.22;;;21.16;38.89
46710;BME280;32442;51.514;-0.178;2023-01-26T00:13:23;102568.00;;;21.16;38.44
46710;BME280;32442;51.514;-0.178;2023-01-26T00:15:50;102566.84;;;21.17;38.89
46710;BME280;32442;51.514;-0.178;2023-01-26T00:18:17;102566.59;;;21.18;38.57
46710;BME280;32442;51.514;-0.178;2023-01-26T00:20:44;102566.84;;;21.17;38.76
46710;BME280;32442;51.514;-0.178;2023-01-26T00:23:11;102569.66;;;21.17;38.63
46710;BME280;32442;51.514;-0.178;2023-01-26T00:25:38;102570.50;;;21.17;38.59
46710;BME280;32442;51.514;-0.178;2023-01-26T00:28:05;102569.94;;;21.15;38.89
46710;BME280;32442;51.514;-0.178;2023-01-26T00:30:33;102570.81;;;21.16;38.61
46710;BME280;32442;51.514;-0.178;2023-01-26T00:33:00;102563.75;;;21.13;38.79
46710;BME280;32442;51.514;-0.178;2023-01-26T00:35:27;102570.44;;;21.12;39.00
46710;BME280;32442;51.514;-0.178;2023-01-26T00:37:54;102563.41;;;21.10;38.67
46710;BME280;32442;51.514;-0.178;2023-01-26T00:40:21;102572.97;;;21.09;38.93
46710;BME280;32442;51.514;-0.178;2023-01-26T00:42:48;102567.91;;;21.06;38.76
46710;BME280;32442;51.514;-0.178;2023-01-26T00:45:15;102568.16;;;21.04;38.73
46710;BME280;32442;51.514;-0.178;2023-01-26T00:47:42;102582.50;;;21.03;39.18
46710;BME280;32442;51.514;-0.178;2023-01-26T00:50:10;102578.25;;;21.00;39.11
46710;BME280;32442;51.514;-0.178;2023-01-26T00:52:40;102575.16;;;20.97;38.93
46710;BME280;32442;51.514;-0.178;2023-01-26T00:55:07;102573.44;;;20.96;39.33
46710;BME280;32442;51.514;-0.178;2023-01-26T00:57:34;102570.34;;;20.92;39.09
46710;BME280;32442;51.514;-0.178;2023-01-26T01:00:01;102570.91;;;20.89;39.03
46710;BME280;32442;51.514;-0.178;2023-01-26T01:02:28;102585.22;;;20.88;39.43
46710;BME280;32442;51.514;-0.178;2023-01-26T01:04:55;102575.03;;;20.81;39.64
46710;BME280;32442;51.514;-0.178;2023-01-26T01:07:24;102571.38;;;20.81;39.24
46710;BME280;32442;51.514;-0.178;2023-01-26T01:09:53;102567.72;;;20.75;39.38
46710;BME280;32442;51.514;-0.178;2023-01-26T01:12:20;102578.63;;;20.72;39.57
46710;BME280;32442;51.514;-0.178;2023-01-26T01:14:47;102571.59;;;20.69;39.68
46710;BME280;32442;51.514;-0.178;2023-01-26T01:17:14;102576.91;;;20.66;39.77
46710;BME280;32442;51.514;-0.178;2023-01-26T01:19:41;102573.81;;;20.62;39.74
46710;BME280;32442;51.514;-0.178;2023-01-26T01:22:07;102568.72;;;20.59;39.98
46710;BME280;32442;51.514;-0.178;2023-01-26T01:24:34;102579.38;;;20.57;39.79
46710;BME280;32442;51.514;-0.178;2023-01-26T01:27:03;102581.34;;;20.57;39.88
46710;BME280;32442;51.514;-0.178;2023-01-26T01:29:30;102584.66;;;20.54;39.85
46710;BME280;32442;51.514;-0.178;2023-01-26T01:31:57;102586.66;;;20.58;40.10
46710;BME280;32442;51.514;-0.178;2023-01-26T01:34:24;102593.97;;;20.59;39.61
46710;BME280;32442;51.514;-0.178;2023-01-26T01:36:51;102586.66;;;20.58;39.77
46710;BME280;32442;51.514;-0.178;2023-01-26T01:39:18;102594.78;;;20.55;39.74
46710;BME280;32442;51.514;-0.178;2023-01-26T01:41:47;102588.03;;;20.51;39.82
46710;BME280;32442;51.514;-0.178;2023-01-26T01:44:16;102599.81;;;20.48;39.75
46710;BME280;32442;51.514;-0.178;2023-01-26T01:51:46;102591.59;;;20.41;39.61
46710;BME280;32442;51.514;-0.178;2023-01-26T01:54:17;102601.97;;;20.40;39.70
46710;BME280;32442;51.514;-0.178;2023-01-26T01:56:48;102595.78;;;20.38;39.66
46710;BME280;32442;51.514;-0.178;2023-01-26T01:59:17;102608.66;;;20.34;39.90
46710;BME280;32442;51.514;-0.178;2023-01-26T02:01:48;102602.72;;;20.31;39.85
46710;BME280;32442;51.514;-0.178;2023-01-26T02:04:15;102592.84;;;20.28;40.13
46710;BME280;32442;51.514;-0.178;2023-01-26T02:06:46;102604.88;;;20.24;39.85
46710;BME280;32442;51.514;-0.178;2023-01-26T02:09:14;102595.03;;;20.21;39.76
46710;BME280;32442;51.514;-0.178;2023-01-26T02:12:02;102595.88;;;20.22;40.11
46710;BME280;32442;51.514;-0.178;2023-01-26T02:14:31;102584.88;;;20.15;39.82
46710;BME280;32442;51.514;-0.178;2023-01-26T02:16:59;102591.03;;;20.12;39.79
46710;BME280;32442;51.514;-0.178;2023-01-26T02:21:56;102584.50;;;20.07;40.04
46710;BME280;32442;51.514;-0.178;2023-01-26T02:24:28;102581.66;;;20.02;39.99
46710;BME280;32442;51.514;-0.178;2023-01-26T02:27:00;102581.41;;;20.03;39.84
46710;BME280;32442;51.514;-0.178;2023-01-26T02:29:28;102571.78;;;19.99;40.19
46710;BME280;32442;51.514;-0.178;2023-01-26T02:31:58;102587.47;;;19.95;40.20
46710;BME280;32442;51.514;-0.178;2023-01-26T02:34:24;102587.47;;;19.95;40.29
46710;BME280;32442;51.514;-0.178;2023-01-26T02:36:55;102585.72;;;19.89;40.38
46710;BME280;32442;51.514;-0.178;2023-01-26T02:41:52;102589.34;;;19.84;40.17
46710;BME280;32442;51.514;-0.178;2023-01-26T02:44:23;102592.13;;;19.84;40.46
46710;BME280;32442;51.514;-0.178;2023-01-26T02:46:51;102590.69;;;19.82;40.34
46710;BME280;32442;51.514;-0.178;2023-01-26T02:49:18;102582.22;;;19.77;40.14
46710;BME280;32442;51.514;-0.178;2023-01-26T02:51:48;102585.31;;;19.75;40.55
46710;BME280;32442;51.514;-0.178;2023-01-26T02:54:16;102580.19;;;19.72;40.58
46710;BME280;32442;51.514;-0.178;2023-01-26T02:56:47;102594.75;;;19.69;40.52
46710;BME280;32442;51.514;-0.178;2023-01-26T02:59:17;102600.31;;;19.64;40.31
46710;BME280;32442;51.514;-0.178;2023-01-26T03:01:44;102587.97;;;19.65;40.45
46710;BME280;32442;51.514;-0.178;2023-01-26T03:04:11;102592.44;;;19.61;40.65
46710;BME280;32442;51.514;-0.178;2023-01-26T03:06:37;102592.38;;;19.56;40.58
46710;BME280;32442;51.514;-0.178;2023-01-26T03:09:04;102590.66;;;19.55;40.83
46710;BME280;32442;51.514;-0.178;2023-01-26T03:11:31;102593.22;;;19.57;40.70
46710;BME280;32442;51.514;-0.178;2023-01-26T03:14:09;102599.59;;;19.52;40.66
46710;BME280;32442;51.514;-0.178;2023-01-26T03:16:36;102592.28;;;19.51;40.47
46710;BME280;32442;51.514;-0.178;2023-01-26T03:19:04;102594.50;;;19.49;40.85
46710;BME280;32442;51.514;-0.178;2023-01-26T03:21:34;102598.09;;;19.44;40.67
46710;BME280;32442;51.514;-0.178;2023-01-26T03:24:04;102600.06;;;19.44;40.93
46710;BME280;32442;51.514;-0.178;2023-01-26T03:26:34;102596.03;;;19.40;40.69
46710;BME280;32442;51.514;-0.178;2023-01-26T03:29:05;102598.84;;;19.40;40.66
46710;BME280;32442;51.514;-0.178;2023-01-26T03:31:32;102599.38;;;19.37;40.75
46710;BME280;32442;51.514;-0.178;2023-01-26T03:33:59;102602.94;;;19.32;41.11
46710;BME280;32442;51.514;-0.178;2023-01-26T03:36:26;102597.09;;;19.34;41.27
46710;BME280;32442;51.514;-0.178;2023-01-26T03:38:53;102601.53;;;19.30;41.55
46710;BME280;32442;51.514;-0.178;2023-01-26T03:41:20;102598.72;;;19.30;41.15
46710;BME280;32442;51.514;-0.178;2023-01-26T03:43:50;102603.97;;;19.26;41.36
46710;BME280;32442;51.514;-0.178;2023-01-26T03:46:20;102600.59;;;19.24;40.89
46710;BME280;32442;51.514;-0.178;2023-01-26T03:48:50;102607.56;;;19.22;40.91
46710;BME280;32442;51.514;-0.178;2023-01-26T03:51:20;102607.84;;;19.20;40.80
46710;BME280;32442;51.514;-0.178;2023-01-26T03:53:50;102610.88;;;19.19;41.20
46710;BME280;32442;51.514;-0.178;2023-01-26T03:56:20;102600.78;;;19.18;41.20
46710;BME280;32442;51.514;-0.178;2023-01-26T03:58:50;102607.75;;;19.15;40.83
46710;BME280;32442;51.514;-0.178;2023-01-26T04:01:20;102612.19;;;19.11;41.02
46710;BME280;32442;51.514;-0.178;2023-01-26T04:03:52;102615.50;;;19.08;41.03
46710;BME280;32442;51.514;-0.178;2023-01-26T04:06:23;102615.75;;;19.06;41.13
46710;BME280;32442;51.514;-0.178;2023-01-26T04:08:55;102608.38;;;19.00;41.46
46710;BME280;32442;51.514;-0.178;2023-01-26T04:11:22;102612.03;;;19.01;41.12
46710;BME280;32442;51.514;-0.178;2023-01-26T04:13:49;102609.47;;;18.99;41.29
46710;BME280;32442;51.514;-0.178;2023-01-26T04:16:20;102610.00;;;18.96;41.12
46710;BME280;32442;51.514;-0.178;2023-01-26T04:18:49;102603.81;;;18.94;41.13
46710;BME280;32442;51.514;-0.178;2023-01-26T04:21:20;102600.94;;;18.89;41.19
46710;BME280;32442;51.514;-0.178;2023-01-26T04:23:52;102611.31;;;18.89;41.19
46710;BME280;32442;51.514;-0.178;2023-01-26T04:26:23;102607.66;;;18.88;41.27
46710;BME280;32442;51.514;-0.178;2023-01-26T04:28:50;102612.91;;;18.85;41.30
46710;BME280;32442;51.514;-0.178;2023-01-26T04:31:18;102618.53;;;18.85;41.19
46710;BME280;32442;51.514;-0.178;2023-01-26T04:33:44;102629.63;;;18.80;41.26
46710;BME280;32442;51.514;-0.178;2023-01-26T04:36:12;102633.78;;;18.77;41.57
46710;BME280;32442;51.514;-0.178;2023-01-26T04:38:40;102639.38;;;18.77;41.55
46710;BME280;32442;51.514;-0.178;2023-01-26T04:41:07;102637.09;;;18.74;41.85
46710;BME280;32442;51.514;-0.178;2023-01-26T04:43:35;102641.25;;;18.72;42.01
46710;BME280;32442;51.514;-0.178;2023-01-26T04:46:03;102648.81;;;18.71;41.64
46710;BME280;32442;51.514;-0.178;2023-01-26T04:48:32;102642.09;;;18.72;41.93
46710;BME280;32442;51.514;-0.178;2023-01-26T04:51:00;102646.28;;;18.70;42.08
46710;BME280;32442;51.514;-0.178;2023-01-26T04:53:28;102642.28;;;18.65;42.13
46710;BME280;32442;51.514;-0.178;2023-01-26T04:55:54;102631.34;;;18.64;41.96
46710;BME280;32442;51.514;-0.178;2023-01-26T04:58:21;102638.03;;;18.63;42.17
46710;BME280;32442;51.514;-0.178;2023-01-26T05:00:51;102637.44;;;18.61;42.53
46710;BME280;32442;51.514;-0.178;2023-01-26T05:03:18;102633.56;;;18.62;42.26
46710;BME280;32442;51.514;-0.178;2023-01-26T05:08:16;102624.78;;;18.58;42.18
46710;BME280;32442;51.514;-0.178;2023-01-26T05:10:44;102626.16;;;18.56;42.34
46710;BME280;32442;51.514;-0.178;2023-01-26T05:13:12;102638.69;;;18.53;42.60
46710;BME280;32442;51.514;-0.178;2023-01-26T05:15:39;102638.94;;;18.52;42.37
46710;BME280;32442;51.514;-0.178;2023-01-26T05:18:08;102632.72;;;18.50;42.91
46710;BME280;32442;51.514;-0.178;2023-01-26T05:20:35;102634.94;;;18.48;42.60
46710;BME280;32442;51.514;-0.178;2023-01-26T05:23:02;102643.94;;;18.50;42.94
46710;BME280;32442;51.514;-0.178;2023-01-26T05:25:29;102646.47;;;18.51;43.37
46710;BME280;32442;51.514;-0.178;2023-01-26T05:27:56;102640.41;;;18.54;43.27
46710;BME280;32442;51.514;-0.178;2023-01-26T05:30:22;102642.72;;;18.57;43.95
46710;BME280;32442;51.514;-0.178;2023-01-26T05:32:49;102645.84;;;18.61;44.24
46710;BME280;32442;51.514;-0.178;2023-01-26T05:35:16;102645.31;;;18.64;44.05
46710;BME280;32442;51.514;-0.178;2023-01-26T05:37:44;102650.16;;;18.69;44.11
46710;BME280;32442;51.514;-0.178;2023-01-26T05:40:11;102642.94;;;18.73;44.00
46710;BME280;32442;51.514;-0.178;2023-01-26T05:42:39;102645.84;;;18.78;44.23
46710;BME280;32442;51.514;-0.178;2023-01-26T05:45:07;102641.41;;;18.82;44.13
46710;BME280;32442;51.514;-0.178;2023-01-26T05:47:35;102646.25;;;18.86;44.09
46710;BME280;32442;51.514;-0.178;2023-01-26T05:50:02;102646.59;;;18.90;44.24
46710;BME280;32442;51.514;-0.178;2023-01-26T05:52:28;102649.47;;;18.95;44.05
46710;BME280;32442;51.514;-0.178;2023-01-26T05:54:55;102651.50;;;18.99;44.04
46710;BME280;32442;51.514;-0.178;2023-01-26T05:57:22;102646.81;;;19.05;44.17
46710;BME280;32442;51.514;-0.178;2023-01-26T05:59:50;102648.84;;;19.09;43.74
46710;BME280;32442;51.514;-0.178;2023-01-26T06:02:17;102650.63;;;19.16;43.84
46710;BME280;32442;51.514;-0.178;2023-01-26T06:04:44;102647.06;;;19.20;43.78
46710;BME280;32442;51.514;-0.178;2023-01-26T06:07:11;102656.41;;;19.26;43.38
46710;BME280;32442;51.514;-0.178;2023-01-26T06:09:41;102658.16;;;19.32;43.54
46710;BME280;32442;51.514;-0.178;2023-01-26T06:12:11;102654.56;;;19.36;43.61
46710;BME280;32442;51.514;-0.178;2023-01-26T06:14:41;102651.59;;;19.43;43.45
46710;BME280;32442;51.514;-0.178;2023-01-26T06:17:13;102651.69;;;19.48;43.46
46710;BME280;32442;51.514;-0.178;2023-01-26T06:19:40;102654.56;;;19.53;43.26
46710;BME280;32442;51.514;-0.178;2023-01-26T06:22:09;102663.03;;;19.58;42.90
46710;BME280;32442;51.514;-0.178;2023-01-26T06:24:37;102655.53;;;19.64;42.83
46710;BME280;32442;51.514;-0.178;2023-01-26T06:27:05;102668.53;;;19.70;43.24
46710;BME280;32442;51.514;-0.178;2023-01-26T06:29:33;102671.41;;;19.75;43.26
46710;BME280;32442;51.514;-0.178;2023-01-26T06:31:59;102673.41;;;19.79;43.01
46710;BME280;32442;51.514;-0.178;2023-01-26T06:34:29;102667.88;;;19.84;42.75
46710;BME280;32442;51.514;-0.178;2023-01-26T06:36:56;102665.94;;;19.90;42.69
46710;BME280;32442;51.514;-0.178;2023-01-26T06:39:23;102667.97;;;19.94;42.77
46710;BME280;32442;51.514;-0.178;2023-01-26T06:41:50;102679.25;;;19.99;42.58
46710;BME280;32442;51.514;-0.178;2023-01-26T06:44:17;102693.34;;;20.05;42.16
46710;BME280;32442;51.514;-0.178;2023-01-26T06:46:44;102693.41;;;20.10;42.25
46710;BME280;32442;51.514;-0.178;2023-01-26T06:49:11;102690.66;;;20.15;42.31
46710;BME280;32442;51.514;-0.178;2023-01-26T06:54:08;102693.00;;;20.23;41.79
46710;BME280;32442;51.514;-0.178;2023-01-26T06:56:36;102697.56;;;20.29;41.96
46710;BME280;32442;51.514;-0.178;2023-01-26T06:59:03;102691.44;;;20.32;41.80
46710;BME280;32442;51.514;-0.178;2023-01-26T07:01:32;102699.06;;;20.36;41.90
46710;BME280;32442;51.514;-0.178;2023-01-26T07:04:00;102701.06;;;20.41;41.45
46710;BME280;32442;51.514;-0.178;2023-01-26T07:06:27;102703.09;;;20.46;41.85
46710;BME280;32442;51.514;-0.178;2023-01-26T07:08:55;102713.81;;;20.49;41.66
46710;BME280;32442;51.514;-0.178;2023-01-26T07:11:22;102714.97;;;20.53;41.30
46710;BME280;32442;51.514;-0.178;2023-01-26T07:13:51;102717.00;;;20.57;41.58
46710;BME280;32442;51.514;-0.178;2023-01-26T07:16:17;102722.06;;;20.60;41.30
46710;BME280;32442;51.514;-0.178;2023-01-26T07:18:45;102722.13;;;20.65;41.53
46710;BME280;32442;51.514;-0.178;2023-01-26T07:21:13;102720.22;;;20.71;41.37
46710;BME280;32442;51.514;-0.178;2023-01-26T07:23:44;102723.31;;;20.74;41.44
46710;BME280;32442;51.514;-0.178;2023-01-26T07:26:12;102729.50;;;20.76;41.16
46710;BME280;32442;51.514;-0.178;2023-01-26T07:28:39;102729.00;;;20.79;41.18
46710;BME280;32442;51.514;-0.178;2023-01-26T07:31:06;102726.50;;;20.83;40.62
46710;BME280;32442;51.514;-0.178;2023-01-26T07:33:34;102728.75;;;20.86;40.80
46710;BME280;32442;51.514;-0.178;2023-01-26T07:36:01;102714.19;;;20.89;40.68
46710;BME280;32442;51.514;-0.178;2023-01-26T07:38:28;102706.06;;;20.93;40.72
46710;BME280;32442;51.514;-0.178;2023-01-26T07:40:56;102708.34;;;20.96;40.65
46710;BME280;32442;51.514;-0.178;2023-01-26T07:43:22;102704.97;;;20.99;40.05
46710;BME280;32442;51.514;-0.178;2023-01-26T07:45:52;102731.72;;;21.01;40.39
46710;BME280;32442;51.514;-0.178;2023-01-26T07:48:20;102734.25;;;21.03;40.30
46710;BME280;32442;51.514;-0.178;2023-01-26T07:50:47;102744.06;;;21.00;39.29
46710;BME280;32442;51.514;-0.178;2023-01-26T07:53:15;102749.38;;;20.97;38.86
46710;BME280;32442;51.514;-0.178;2023-01-26T07:55:47;102739.84;;;20.98;38.63
46710;BME280;32442;51.514;-0.178;2023-01-26T07:58:14;102742.91;;;20.96;38.51
46710;BME280;32442;51.514;-0.178;2023-01-26T08:00:44;102750.31;;;20.75;37.55
46710;BME280;32442;51.514;-0.178;2023-01-26T08:03:13;102741.16;;;20.90;38.10
46710;BME280;32442;51.514;-0.178;2023-01-26T08:05:39;102737.28;;;20.96;37.98
46710;BME280;32442;51.514;-0.178;2023-01-26T08:08:09;102749.13;;;20.98;37.76
46710;BME280;32442;51.514;-0.178;2023-01-26T08:10:37;102741.25;;;21.00;37.74
46710;BME280;32442;51.514;-0.178;2023-01-26T08:13:05;102731.13;;;20.99;38.08
46710;BME280;32442;51.514;-0.178;2023-01-26T08:15:32;102728.59;;;20.98;37.69
46710;BME280;32442;51.514;-0.178;2023-01-26T08:17:59;102730.56;;;20.97;37.81
46710;BME280;32442;51.514;-0.178;2023-01-26T08:20:30;102751.59;;;20.95;37.84
46710;BME280;32442;51.514;-0.178;2023-01-26T08:22:59;102753.84;;;20.93;38.20
46710;BME280;32442;51.514;-0.178;2023-01-26T08:25:28;102748.47;;;20.91;37.91
46710;BME280;32442;51.514;-0.178;2023-01-26T08:27:55;102744.81;;;20.91;37.85
46710;BME280;32442;51.514;-0.178;2023-01-26T08:30:23;102736.94;;;20.88;38.04
46710;BME280;32442;51.514;-0.178;2023-01-26T08:32:50;102745.97;;;20.95;38.51
46710;BME280;32442;51.514;-0.178;2023-01-26T08:35:17;102744.00;;;20.95;38.19
46710;BME280;32442;51.514;-0.178;2023-01-26T08:37:44;102742.31;;;20.94;38.26
46710;BME280;32442;51.514;-0.178;2023-01-26T08:40:12;102751.06;;;20.98;38.12
46710;BME280;32442;51.514;-0.178;2023-01-26T08:42:39;102744.31;;;20.99;38.50
46710;BME280;32442;51.514;-0.178;2023-01-26T08:45:07;102741.25;;;21.00;38.12
46710;BME280;32442;51.514;-0.178;2023-01-26T08:47:37;102752.22;;;21.02;38.05
46710;BME280;32442;51.514;-0.178;2023-01-26T08:50:04;102762.94;;;21.05;38.46
46710;BME280;32442;51.514;-0.178;2023-01-26T08:52:31;102758.16;;;21.05;38.32
46710;BME280;32442;51.514;-0.178;2023-01-26T08:54:59;102767.44;;;21.06;38.16
46710;BME280;32442;51.514;-0.178;2023-01-26T08:57:26;102762.66;;;21.06;38.02
46710;BME280;32442;51.514;-0.178;2023-01-26T08:59:54;102759.88;;;21.06;38.09
46710;BME280;32442;51.514;-0.178;2023-01-26T09:02:21;102762.94;;;21.05;37.75
46710;BME280;32442;51.514;-0.178;2023-01-26T09:04:49;102762.06;;;21.04;37.83
46710;BME280;32442;51.514;-0.178;2023-01-26T09:07:16;102764.03;;;21.04;38.10
46710;BME280;32442;51.514;-0.178;2023-01-26T09:09:43;102760.38;;;21.03;38.18
46710;BME280;32442;51.514;-0.178;2023-01-26T09:12:11;102768.25;;;21.01;38.18
46710;BME280;32442;51.514;-0.178;2023-01-26T09:14:38;102776.09;;;20.99;38.10
46710;BME280;32442;51.514;-0.178;2023-01-26T09:17:09;102774.97;;;21.00;37.78
46710;BME280;32442;51.514;-0.178;2023-01-26T09:19:36;102782.50;;;20.95;37.63
46710;BME280;32442;51.514;-0.178;2023-01-26T09:22:04;102780.28;;;20.97;37.73
46710;BME280;32442;51.514;-0.178;2023-01-26T09:24:31;102783.91;;;20.92;37.90
46710;BME280;32442;51.514;-0.178;2023-01-26T09:26:58;102776.88;;;20.95;37.35
46710;BME280;32442;51.514;-0.178;2023-01-26T09:29:26;102771.22;;;20.90;37.59
46710;BME280;32442;51.514;-0.178;2023-01-26T09:31:54;102778.28;;;20.92;37.86
46710;BME280;32442;51.514;-0.178;2023-01-26T09:34:22;102775.78;;;20.96;37.84
46710;BME280;32442;51.514;-0.178;2023-01-26T09:36:51;102787.00;;;20.96;39.01
46710;BME280;32442;51.514;-0.178;2023-01-26T09:39:19;102782.84;;;20.98;38.95
46710;BME280;32442;51.514;-0.178;2023-01-26T09:41:51;102785.34;;;21.00;39.06
46710;BME280;32442;51.514;-0.178;2023-01-26T09:44:23;102786.81;;;21.02;39.13
46710;BME280;32442;51.514;-0.178;2023-01-26T09:51:53;102791.84;;;21.00;38.74
46710;BME280;32442;51.514;-0.178;2023-01-26T09:56:53;102791.56;;;21.02;38.92
46710;BME280;32442;51.514;-0.178;2023-01-26T10:01:55;102799.97;;;20.97;38.81
46710;BME280;32442;51.514;-0.178;2023-01-26T10:06:59;102804.97;;;20.95;38.53
46710;BME280;32442;51.514;-0.178;2023-01-26T10:09:29;102806.94;;;20.94;38.50
46710;BME280;32442;51.514;-0.178;2023-01-26T10:12:01;102796.25;;;20.91;38.33
46710;BME280;32442;51.514;-0.178;2023-01-26T10:17:02;102802.91;;;20.85;38.41
46710;BME280;32442;51.514;-0.178;2023-01-26T10:19:36;102797.59;;;20.83;38.24
46710;BME280;32442;51.514;-0.178;2023-01-26T10:22:12;102798.09;;;20.80;38.71
46710;BME280;32442;51.514;-0.178;2023-01-26T10:24:40;102793.59;;;20.79;38.63
46710;BME280;32442;51.514;-0.178;2023-01-26T10:27:10;102794.97;;;20.77;38.76
46710;BME280;32442;51.514;-0.178;2023-01-26T10:29:40;102803.41;;;20.77;38.43
46710;BME280;32442;51.514;-0.178;2023-01-26T10:32:09;102805.03;;;20.73;38.41
46710;BME280;32442;51.514;-0.178;2023-01-26T10:34:40;102814.25;;;20.68;38.51
46710;BME280;32442;51.514;-0.178;2023-01-26T10:39:54;102803.56;;;20.65;38.80
46710;BME280;32442;51.514;-0.178;2023-01-26T10:42:22;102811.94;;;20.60;38.61
46710;BME280;32442;51.514;-0.178;2023-01-26T10:44:52;102811.09;;;20.60;38.87
46710;BME280;32442;51.514;-0.178;2023-01-26T10:47:20;102807.72;;;20.58;38.59
46710;BME280;32442;51.514;-0.178;2023-01-26T10:49:49;102806.25;;;20.55;38.94
46710;BME280;32442;51.514;-0.178;2023-01-26T10:52:16;102802.88;;;20.53;38.78
46710;BME280;32442;51.514;-0.178;2023-01-26T10:54:45;102802.03;;;20.53;39.24
46710;BME280;32442;51.514;-0.178;2023-01-26T10:57:13;102801.19;;;20.52;38.91
46710;BME280;32442;51.514;-0.178;2023-01-26T11:07:22;102793.72;;;20.41;39.27
46710;BME280;32442;51.514;-0.178;2023-01-26T11:09:51;102798.25;;;20.42;38.92
46710;BME280;32442;51.514;-0.178;2023-01-26T11:12:20;102800.44;;;20.40;38.86
46710;BME280;32442;51.514;-0.178;2023-01-26T11:24:56;102807.56;;;20.26;39.46
46710;BME280;32442;51.514;-0.178;2023-01-26T11:32:39;102792.63;;;20.20;39.04
46710;BME280;32442;51.514;-0.178;2023-01-26T11:40:30;102784.06;;;20.10;39.15
46710;BME280;32442;51.514;-0.178;2023-01-26T11:53:32;102777.38;;;19.94;39.39
46710;BME280;32442;51.514;-0.178;2023-01-26T11:58:34;102782.66;;;19.91;39.40
46710;BME280;32442;51.514;-0.178;2023-01-26T12:03:43;102772.22;;;19.86;39.85
46710;BME280;32442;51.514;-0.178;2023-01-26T12:06:15;102776.97;;;19.86;39.85
46710;BME280;32442;51.514;-0.178;2023-01-26T12:08:47;102771.38;;;19.86;39.54
46710;BME280;32442;51.514;-0.178;2023-01-26T12:11:18;102772.84;;;19.88;39.84
46710;BME280;32442;51.514;-0.178;2023-01-26T12:16:22;102769.50;;;19.91;39.55
46710;BME280;32442;51.514;-0.178;2023-01-26T12:18:54;102764.47;;;19.93;39.83
46710;BME280;32442;51.514;-0.178;2023-01-26T12:21:37;102763.97;;;19.96;39.73
46710;BME280;32442;51.514;-0.178;2023-01-26T12:24:05;102763.19;;;20.01;39.73
46710;BME280;32442;51.514;-0.178;2023-01-26T12:26:54;102762.41;;;20.06;39.78
46710;BME280;32442;51.514;-0.178;2023-01-26T12:29:24;102763.81;;;20.08;39.51
46710;BME280;32442;51.514;-0.178;2023-01-26T12:31:56;102744.53;;;20.12;39.54
46710;BME280;32442;51.514;-0.178;2023-01-26T12:34:27;102759.72;;;20.16;39.63
46710;BME280;32442;51.514;-0.178;2023-01-26T12:39:30;102765.97;;;20.23;39.30
46710;BME280;32442;51.514;-0.178;2023-01-26T12:49:42;102763.38;;;20.38;39.08
46710;BME280;32442;51.514;-0.178;2023-01-26T12:52:17;102766.75;;;20.40;39.26
46710;BME280;32442;51.514;-0.178;2023-01-26T12:54:48;102772.72;;;20.44;39.15
46710;BME280;32442;51.514;-0.178;2023-01-26T12:57:19;102774.75;;;20.48;38.90
46710;BME280;32442;51.514;-0.178;2023-01-26T12:59:47;102767.72;;;20.51;39.27
46710;BME280;32442;51.514;-0.178;2023-01-26T13:04:43;102761.06;;;20.57;39.15
46710;BME280;32442;51.514;-0.178;2023-01-26T13:07:31;102754.06;;;20.59;38.90
46710;BME280;32442;51.514;-0.178;2023-01-26T13:15:12;102755.88;;;20.70;39.17
46710;BME280;32442;51.514;-0.178;2023-01-26T13:17:41;102754.47;;;20.73;39.13
46710;BME280;32442;51.514;-0.178;2023-01-26T13:22:44;102756.50;;;20.77;38.79
46710;BME280;32442;51.514;-0.178;2023-01-26T13:27:45;102760.75;;;20.80;38.69
46710;BME280;32442;51.514;-0.178;2023-01-26T13:35:17;102763.88;;;20.83;38.89
46710;BME280;32442;51.514;-0.178;2023-01-26T13:40:23;102759.94;;;20.84;38.88
46710;BME280;32442;51.514;-0.178;2023-01-26T13:42:57;102750.38;;;20.85;38.61
46710;BME280;32442;51.514;-0.178;2023-01-26T13:45:28;102754.91;;;20.86;38.86
46710;BME280;32442;51.514;-0.178;2023-01-26T13:47:56;102748.72;;;20.84;38.53
46710;BME280;32442;51.514;-0.178;2023-01-26T13:52:54;102758.25;;;20.83;38.86
46710;BME280;32442;51.514;-0.178;2023-01-26T13:55:23;102757.59;;;20.76;38.80
46710;BME280;32442;51.514;-0.178;2023-01-26T14:00:28;102749.75;;;20.78;38.73
46710;BME280;32442;51.514;-0.178;2023-01-26T14:02:55;102754.53;;;20.78;38.66
46710;BME280;32442;51.514;-0.178;2023-01-26T14:05:22;102755.34;;;20.73;38.96
46710;BME280;32442;51.514;-0.178;2023-01-26T14:07:49;102743.53;;;20.71;38.69
46710;BME280;32442;51.514;-0.178;2023-01-26T14:10:17;102756.72;;;20.71;38.93
46710;BME280;32442;51.514;-0.178;2023-01-26T14:12:46;102748.56;;;20.69;39.01
46710;BME280;32442;51.514;-0.178;2023-01-26T14:15:31;102753.56;;;20.67;39.26
46710;BME280;32442;51.514;-0.178;2023-01-26T14:17:59;102751.06;;;20.66;39.33
46710;BME280;32442;51.514;-0.178;2023-01-26T14:20:28;102754.38;;;20.63;39.01
46710;BME280;32442;51.514;-0.178;2023-01-26T14:23:01;102752.97;;;20.60;39.21
46710;BME280;32442;51.514;-0.178;2023-01-26T14:25:28;102761.63;;;20.59;39.38
46710;BME280;32442;51.514;-0.178;2023-01-26T14:27:55;102772.00;;;20.58;39.29
46710;BME280;32442;51.514;-0.178;2023-01-26T14:32:54;102762.13;;;20.51;39.17
46710;BME280;32442;51.514;-0.178;2023-01-26T14:35:22;102754.47;;;20.46;39.52
46710;BME280;32442;51.514;-0.178;2023-01-26T14:37:52;102754.75;;;20.45;39.56
46710;BME280;32442;51.514;-0.178;2023-01-26T14:40:29;102758.09;;;20.41;39.31
46710;BME280;32442;51.514;-0.178;2023-01-26T14:42:56;102745.44;;;20.39;39.84
46710;BME280;32442;51.514;-0.178;2023-01-26T14:45:27;102759.13;;;20.35;39.35